createdAt,value
2018-11-25T00:00:11.210Z,18.50
2018-11-25T00:02:39.907Z,24.35
2018-11-25T00:05:09.149Z,32.83
2018-11-25T00:07:37.857Z,23.18
2018-11-25T00:10:07.018Z,26.23
2018-11-25T00:12:35.898Z,25.63
2018-11-25T00:15:04.997Z,35.57
2018-11-25T00:17:34.764Z,29.75
2018-11-25T00:20:06.568Z,24.67
2018-11-25T00:22:35.249Z,26.80
2018-11-25T00:25:04.037Z,25.03
2018-11-25T00:27:32.724Z,23.32
2018-11-25T00:30:01.736Z,21.25
2018-11-25T00:32:30.502Z,28.27
2018-11-25T00:34:59.187Z,25.95
2018-11-25T00:37:27.930Z,25.40
2018-11-25T00:39:56.646Z,25.03
2018-11-25T00:42:25.346Z,30.03
2018-11-25T00:44:54.040Z,23.17
2018-11-25T00:47:23.297Z,23.50
2018-11-25T00:49:52.225Z,27.60
2018-11-25T00:52:20.915Z,19.75
2018-11-25T00:54:49.637Z,23.33
2018-11-25T00:57:18.329Z,33.60
2018-11-25T00:59:47.021Z,29.23
2018-11-25T01:02:15.718Z,30.93
2018-11-25T01:04:44.437Z,27.03
2018-11-25T01:07:13.149Z,26.57
2018-11-25T01:09:41.876Z,24.53
2018-11-25T01:12:10.581Z,24.57
2018-11-25T01:14:39.256Z,19.75
2018-11-25T01:17:08.613Z,29.60
2018-11-25T01:19:37.345Z,20.07
2018-11-25T01:22:06.055Z,29.43
2018-11-25T01:24:34.843Z,24.67
2018-11-25T01:27:04.264Z,31.87
2018-11-25T01:29:32.967Z,22.57
2018-11-25T01:32:02.142Z,25.03
2018-11-25T01:34:30.849Z,23.27
2018-11-25T01:36:59.548Z,27.00
2018-11-25T01:39:28.448Z,25.87
2018-11-25T01:41:57.158Z,25.23
2018-11-25T01:44:25.813Z,25.23
2018-11-25T01:46:54.532Z,24.00
2018-11-25T01:49:23.234Z,23.87
2018-11-25T01:51:51.941Z,28.50
2018-11-25T01:54:20.905Z,26.48
2018-11-25T01:56:49.604Z,25.27
2018-11-25T01:59:18.338Z,35.33
2018-11-25T02:01:47.084Z,22.17
2018-11-25T02:04:15.780Z,23.17
2018-11-25T02:06:44.545Z,22.82
2018-11-25T02:09:13.238Z,27.93
2018-11-25T02:11:41.937Z,24.70
2018-11-25T02:14:10.673Z,29.83
2018-11-25T02:16:46.149Z,23.97
2018-11-25T02:19:14.856Z,33.47
2018-11-25T02:21:43.529Z,25.87
2018-11-25T02:24:12.638Z,24.52
2018-11-25T02:26:41.539Z,24.13
2018-11-25T02:29:10.211Z,28.00
2018-11-25T02:31:39.145Z,23.07
2018-11-25T02:34:07.840Z,22.60
2018-11-25T02:36:36.524Z,24.98
2018-11-25T02:39:08.141Z,28.75
2018-11-25T02:41:36.940Z,27.40
2018-11-25T02:44:05.698Z,26.90
2018-11-25T02:46:34.385Z,38.33
2018-11-25T02:49:04.092Z,27.10
2018-11-25T02:51:32.812Z,21.40
2018-11-25T02:54:02.916Z,26.97
2018-11-25T02:56:31.646Z,31.63
2018-11-25T02:59:00.371Z,33.80
2018-11-25T03:01:29.552Z,24.50
2018-11-25T03:03:58.337Z,22.90
2018-11-25T03:06:28.113Z,29.13
2018-11-25T03:08:56.910Z,20.50
2018-11-25T03:11:25.623Z,25.90
2018-11-25T03:13:54.329Z,22.45
2018-11-25T03:16:23.046Z,28.10
2018-11-25T03:18:51.733Z,31.87
2018-11-25T03:21:20.443Z,22.55
2018-11-25T03:23:49.217Z,22.10
2018-11-25T03:26:17.933Z,18.47
2018-11-25T03:28:46.982Z,27.87
2018-11-25T03:31:15.693Z,21.20
2018-11-25T03:33:44.405Z,21.60
2018-11-25T03:36:13.161Z,24.90
2018-11-25T03:38:41.925Z,25.90
2018-11-25T03:41:10.601Z,21.45
2018-11-25T03:43:39.299Z,24.37
2018-11-25T03:46:08.527Z,23.30
2018-11-25T03:48:37.496Z,21.20
2018-11-25T03:51:06.221Z,22.00
2018-11-25T03:53:35.101Z,19.33
2018-11-25T03:56:04.007Z,23.18
2018-11-25T03:58:32.726Z,20.93
2018-11-25T04:01:02.018Z,21.60
2018-11-25T04:03:30.850Z,29.17
2018-11-25T04:05:59.677Z,25.47
2018-11-25T04:08:28.765Z,23.73
2018-11-25T04:10:57.549Z,20.80
2018-11-25T04:13:26.409Z,22.50
2018-11-25T04:15:55.196Z,23.73
2018-11-25T04:18:24.001Z,18.77
2018-11-25T04:20:52.706Z,21.03
2018-11-25T04:23:21.519Z,23.50
2018-11-25T04:25:50.486Z,20.27
2018-11-25T04:28:19.267Z,20.63
2018-11-25T04:30:48.037Z,19.13
2018-11-25T04:33:16.967Z,23.95
2018-11-25T04:35:45.728Z,20.70
2018-11-25T04:38:14.509Z,18.00
2018-11-25T04:40:43.314Z,20.05
2018-11-25T04:43:12.110Z,24.10
2018-11-25T04:45:40.866Z,27.83
2018-11-25T04:48:09.625Z,16.53
2018-11-25T04:50:38.368Z,21.13
2018-11-25T04:53:07.149Z,22.57
2018-11-25T04:55:35.885Z,19.50
2018-11-25T04:58:05.065Z,21.87
2018-11-25T05:00:33.925Z,22.75
2018-11-25T05:03:03.505Z,19.83
2018-11-25T05:05:32.315Z,20.73
2018-11-25T05:08:01.540Z,28.20
2018-11-25T05:10:30.485Z,18.63
2018-11-25T05:12:59.247Z,23.12
2018-11-25T05:15:27.981Z,21.80
2018-11-25T05:17:56.661Z,20.70
2018-11-25T05:20:25.364Z,26.40
2018-11-25T05:22:54.269Z,27.13
2018-11-25T05:25:22.976Z,24.23
2018-11-25T05:27:51.767Z,19.65
2018-11-25T05:30:20.939Z,22.00
2018-11-25T05:32:49.894Z,22.90
2018-11-25T05:35:19.477Z,24.83
2018-11-25T05:37:48.500Z,22.00
2018-11-25T05:40:17.342Z,23.20
2018-11-25T05:42:46.187Z,22.75
2018-11-25T05:45:16.816Z,23.25
2018-11-25T05:47:45.570Z,28.00
2018-11-25T05:50:15.137Z,21.73
2018-11-25T05:52:43.897Z,21.73
2018-11-25T05:55:12.926Z,26.40
2018-11-25T05:57:41.775Z,21.27
2018-11-25T06:00:18.626Z,25.00
2018-11-25T06:02:47.369Z,21.93
2018-11-25T06:05:16.123Z,27.03
2018-11-25T06:07:44.911Z,23.30
2018-11-25T06:10:14.020Z,24.95
2018-11-25T06:12:42.903Z,27.30
2018-11-25T06:15:12.538Z,19.73
2018-11-25T06:17:41.266Z,23.50
2018-11-25T06:20:13.085Z,18.92
2018-11-25T06:22:41.873Z,20.63
2018-11-25T06:25:12.806Z,19.60
2018-11-25T06:27:41.525Z,24.40
2018-11-25T06:30:12.388Z,17.67
2018-11-25T06:32:41.176Z,16.53
2018-11-25T06:35:11.233Z,26.77
2018-11-25T06:37:39.945Z,19.53
2018-11-25T06:40:12.699Z,20.47
2018-11-25T06:42:41.425Z,29.30
2018-11-25T06:45:13.025Z,14.90
2018-11-25T06:47:41.729Z,23.63
2018-11-25T06:50:12.424Z,19.87
2018-11-25T06:52:41.098Z,23.25
2018-11-25T06:55:11.240Z,22.80
2018-11-25T06:57:39.965Z,20.23
2018-11-25T07:00:12.337Z,19.73
2018-11-25T07:02:41.150Z,17.60
2018-11-25T07:05:09.925Z,23.30
2018-11-25T07:07:38.625Z,15.80
2018-11-25T07:10:13.292Z,16.60
2018-11-25T07:12:42.036Z,17.20
2018-11-25T07:15:16.105Z,24.00
2018-11-25T07:17:44.853Z,19.93
2018-11-25T07:20:15.550Z,24.27
2018-11-25T07:22:44.457Z,20.12
2018-11-25T07:25:14.937Z,16.17
2018-11-25T07:27:43.632Z,20.97
2018-11-25T07:30:19.444Z,16.63
2018-11-25T07:32:48.150Z,19.27
2018-11-25T07:35:16.851Z,18.93
2018-11-25T07:37:45.586Z,25.63
2018-11-25T07:40:16.306Z,20.90
2018-11-25T07:42:45.093Z,21.97
2018-11-25T07:45:15.977Z,23.80
2018-11-25T07:47:44.689Z,17.37
2018-11-25T07:50:13.768Z,20.43
2018-11-25T07:52:43.470Z,18.67
2018-11-25T07:55:15.038Z,24.00
2018-11-25T07:57:43.881Z,19.73
2018-11-25T08:00:15.540Z,20.10
2018-11-25T08:02:44.296Z,20.17
2018-11-25T08:05:14.165Z,17.20
2018-11-25T08:07:42.867Z,17.37
2018-11-25T08:10:12.480Z,14.18
2018-11-25T08:12:41.484Z,30.92
2018-11-25T08:15:12.212Z,21.87
2018-11-25T08:17:42.021Z,23.15
2018-11-25T08:20:15.429Z,18.17
2018-11-25T08:22:44.142Z,17.10
2018-11-25T08:25:15.581Z,20.00
2018-11-25T08:27:44.277Z,17.50
2018-11-25T08:30:23.520Z,18.42
2018-11-25T08:32:52.710Z,22.90
2018-11-25T08:35:21.440Z,22.70
2018-11-25T08:37:50.276Z,24.57
2018-11-25T08:40:20.257Z,21.87
2018-11-25T08:42:48.980Z,21.45
2018-11-25T08:45:17.688Z,17.75
2018-11-25T08:47:46.777Z,20.50
2018-11-25T08:50:17.283Z,20.10
2018-11-25T08:52:47.094Z,19.50
2018-11-25T08:55:16.672Z,21.43
2018-11-25T08:57:45.491Z,23.87
2018-11-25T09:00:15.260Z,22.03
2018-11-25T09:02:43.992Z,16.67
2018-11-25T09:05:13.469Z,19.73
2018-11-25T09:07:42.189Z,17.43
2018-11-25T09:10:14.009Z,18.67
2018-11-25T09:12:42.946Z,20.27
2018-11-25T09:15:15.883Z,20.55
2018-11-25T09:17:44.628Z,19.53
2018-11-25T09:20:15.294Z,18.83
2018-11-25T09:22:44.254Z,21.37
2018-11-25T09:25:18.185Z,17.40
2018-11-25T09:27:46.929Z,25.13
2018-11-25T09:30:25.409Z,20.67
2018-11-25T09:32:54.141Z,30.10
2018-11-25T09:35:23.168Z,25.02
2018-11-25T09:37:51.848Z,22.10
2018-11-25T09:40:22.510Z,22.90
2018-11-25T09:42:51.295Z,22.03
2018-11-25T09:45:20.461Z,20.30
2018-11-25T09:47:49.437Z,28.00
2018-11-25T09:50:20.102Z,21.47
2018-11-25T09:52:48.839Z,25.07
2018-11-25T09:55:21.266Z,23.57
2018-11-25T09:57:59.157Z,23.52
2018-11-25T10:00:28.979Z,32.93
2018-11-25T10:02:57.658Z,24.18
2018-11-25T10:05:26.386Z,22.53
2018-11-25T10:07:55.115Z,24.80
2018-11-25T10:10:24.389Z,26.52
2018-11-25T10:12:53.392Z,28.07
2018-11-25T10:20:33.233Z,27.90
2018-11-25T10:23:03.066Z,27.55
2018-11-25T10:25:31.788Z,22.32
2018-11-25T10:28:00.506Z,27.93
2018-11-25T10:30:30.155Z,41.53
2018-11-25T10:33:01.938Z,26.57
2018-11-25T10:35:30.701Z,27.70
2018-11-25T10:37:59.530Z,29.65
2018-11-25T10:40:28.305Z,22.70
2018-11-25T10:42:57.092Z,23.77
2018-11-25T10:45:26.645Z,22.03
2018-11-25T10:47:55.787Z,26.67
2018-11-25T10:50:24.520Z,27.17
2018-11-25T10:52:53.442Z,22.53
2018-11-25T10:55:22.608Z,35.67
2018-11-25T10:57:52.325Z,37.28
2018-11-25T11:00:43.611Z,24.12
2018-11-25T11:03:17.803Z,29.00
2018-11-25T11:05:51.833Z,26.40
2018-11-25T11:08:20.873Z,29.97
2018-11-25T11:10:49.592Z,29.73
2018-11-25T11:13:18.387Z,31.83
2018-11-25T11:15:47.088Z,31.80
2018-11-25T11:18:15.810Z,28.95
2018-11-25T11:20:44.519Z,35.83
2018-11-25T11:23:13.342Z,29.27
2018-11-25T11:25:42.135Z,27.17
2018-11-25T11:28:10.858Z,31.55
2018-11-25T11:30:39.647Z,30.20
2018-11-25T11:33:08.380Z,25.97
2018-11-25T11:35:37.112Z,45.77
2018-11-25T11:38:05.816Z,31.70
2018-11-25T11:40:34.613Z,24.45
2018-11-25T11:43:04.665Z,23.70
2018-11-25T11:45:33.465Z,27.07
2018-11-25T11:48:02.594Z,31.35
2018-11-25T11:50:31.348Z,29.33
2018-11-25T11:53:00.068Z,28.70
2018-11-25T11:55:29.868Z,28.13
2018-11-25T11:57:58.611Z,29.37
2018-11-25T12:00:29.776Z,24.73
2018-11-25T12:02:58.619Z,34.43
2018-11-25T12:05:27.549Z,32.77
2018-11-25T12:07:56.300Z,37.17
2018-11-25T12:10:25.035Z,30.80
2018-11-25T12:12:54.000Z,34.57
2018-11-25T12:15:30.665Z,41.27
2018-11-25T12:17:54.920Z,47.50
2018-11-25T12:20:24.593Z,40.63
2018-11-25T12:22:54.096Z,38.10
2018-11-25T12:25:23.014Z,32.08
2018-11-25T12:27:51.707Z,43.00
2018-11-25T12:30:21.128Z,27.93
2018-11-25T12:32:50.784Z,34.43
2018-11-25T12:35:19.541Z,39.73
2018-11-25T12:37:48.304Z,39.60
2018-11-25T12:40:19.508Z,39.27
2018-11-25T12:42:49.505Z,40.67
2018-11-25T12:45:18.584Z,32.83
2018-11-25T12:47:47.401Z,36.00
2018-11-25T12:50:17.216Z,36.53
2018-11-25T12:52:45.973Z,41.87
2018-11-25T12:55:15.912Z,53.70
2018-11-25T12:57:44.825Z,46.57
2018-11-25T13:00:19.979Z,35.63
2018-11-25T13:02:48.701Z,37.63
2018-11-25T13:05:17.414Z,38.37
2018-11-25T13:07:46.183Z,44.07
2018-11-25T13:10:15.085Z,43.83
2018-11-25T13:12:43.824Z,36.58
2018-11-25T13:15:12.618Z,43.63
2018-11-25T13:17:41.309Z,41.43
2018-11-25T13:20:13.395Z,40.60
2018-11-25T13:22:42.181Z,38.65
2018-11-25T13:25:13.812Z,43.20
2018-11-25T13:27:42.564Z,43.83
2018-11-25T13:30:17.695Z,39.77
2018-11-25T13:32:46.604Z,48.03
2018-11-25T13:35:15.693Z,52.43
2018-11-25T13:37:44.428Z,33.70
2018-11-25T13:40:14.268Z,34.70
2018-11-25T13:42:43.014Z,41.33
2018-11-25T13:45:11.719Z,32.97
2018-11-25T13:47:40.980Z,35.55
2018-11-25T13:50:11.243Z,40.03
2018-11-25T13:52:40.537Z,54.23
2018-11-25T13:55:12.701Z,31.13
2018-11-25T13:57:41.434Z,36.50
2018-11-25T14:00:18.098Z,35.90
2018-11-25T14:02:46.848Z,47.43
2018-11-25T14:05:16.066Z,41.87
2018-11-25T14:07:44.787Z,52.27
2018-11-25T14:10:16.189Z,33.60
2018-11-25T14:12:44.933Z,33.57
2018-11-25T14:15:13.760Z,42.07
2018-11-25T14:17:42.676Z,36.00
2018-11-25T14:20:11.438Z,32.90
2018-11-25T14:22:40.190Z,47.77
2018-11-25T14:25:12.678Z,39.65
2018-11-25T14:27:41.453Z,32.53
2018-11-25T14:30:16.236Z,37.23
2018-11-25T14:32:44.978Z,38.67
2018-11-25T14:35:15.230Z,35.70
2018-11-25T14:37:44.010Z,42.17
2018-11-25T14:40:17.711Z,43.73
2018-11-25T14:42:46.465Z,47.93
2018-11-25T14:45:16.452Z,41.25
2018-11-25T14:47:45.148Z,52.70
2018-11-25T14:50:15.398Z,49.80
2018-11-25T14:52:45.352Z,35.83
2018-11-25T14:55:15.032Z,42.37
2018-11-25T14:57:43.789Z,43.20
2018-11-25T15:00:20.821Z,36.50
2018-11-25T15:02:52.377Z,47.25
2018-11-25T15:05:27.786Z,47.00
2018-11-25T15:07:56.582Z,45.67
2018-11-25T15:10:25.304Z,41.30
2018-11-25T15:12:54.095Z,43.60
2018-11-25T15:15:23.042Z,36.08
2018-11-25T15:17:51.851Z,44.60
2018-11-25T15:20:20.703Z,46.50
2018-11-25T15:22:51.422Z,37.23
2018-11-25T15:25:22.824Z,45.67
2018-11-25T15:27:51.561Z,44.63
2018-11-25T15:30:20.269Z,45.33
2018-11-25T15:32:48.976Z,40.67
2018-11-25T15:35:18.379Z,42.23
2018-11-25T15:37:47.806Z,35.50
2018-11-25T15:40:20.193Z,51.65
2018-11-25T15:42:48.946Z,47.58
2018-11-25T15:45:17.637Z,37.37
2018-11-25T15:52:47.763Z,43.13
2018-11-25T15:55:16.576Z,30.03
2018-11-25T15:57:45.364Z,47.93
2018-11-25T16:00:16.067Z,51.73
2018-11-25T16:02:44.957Z,33.85
2018-11-25T16:05:16.261Z,52.83
2018-11-25T16:07:45.865Z,44.13
2018-11-25T16:10:14.770Z,47.70
2018-11-25T16:12:44.992Z,43.87
2018-11-25T16:15:16.482Z,59.43
2018-11-25T16:17:45.495Z,50.48
2018-11-25T16:20:16.136Z,41.53
2018-11-25T16:22:46.283Z,60.95
2018-11-25T16:25:18.830Z,49.27
2018-11-25T16:27:48.484Z,55.40
2018-11-25T16:30:17.369Z,44.40
2018-11-25T16:32:46.233Z,64.87
2018-11-25T16:35:15.205Z,45.40
2018-11-25T16:37:43.989Z,56.73
2018-11-25T16:40:14.214Z,57.58
2018-11-25T16:42:43.620Z,58.20
2018-11-25T16:45:14.839Z,48.90
2018-11-25T16:47:44.324Z,49.10
2018-11-25T16:50:24.466Z,54.35
2018-11-25T16:52:44.544Z,52.00
2018-11-25T16:55:14.488Z,66.23
2018-11-25T16:57:44.025Z,59.73
2018-11-25T17:00:16.083Z,57.62
2018-11-25T17:02:44.861Z,56.28
2018-11-25T17:05:15.301Z,67.40
2018-11-25T17:07:45.149Z,63.50
2018-11-25T17:10:13.942Z,55.25
2018-11-25T17:12:42.744Z,63.78
2018-11-25T17:15:27.513Z,69.33
2018-11-25T17:17:56.280Z,61.43
2018-11-25T17:20:25.238Z,57.40
2018-11-25T17:22:54.034Z,69.80
2018-11-25T17:25:22.912Z,72.50
2018-11-25T17:27:51.791Z,62.13
2018-11-25T17:30:21.045Z,55.60
2018-11-25T17:32:49.856Z,54.53
2018-11-25T17:35:21.994Z,50.37
2018-11-25T17:37:50.684Z,62.90
2018-11-25T17:40:19.491Z,55.47
2018-11-25T17:42:48.551Z,56.50
2018-11-25T17:45:17.609Z,61.83
2018-11-25T17:47:47.173Z,56.60
2018-11-25T17:50:22.704Z,73.37
2018-11-25T17:52:52.795Z,59.27
2018-11-25T17:55:22.831Z,61.63
2018-11-25T17:58:08.834Z,57.88
2018-11-25T18:00:42.674Z,61.50
2018-11-25T18:03:16.395Z,68.07
2018-11-25T18:05:52.478Z,47.33
2018-11-25T18:08:21.545Z,53.53
2018-11-25T18:10:55.587Z,45.90
2018-11-25T18:13:34.944Z,57.06
2018-11-25T18:16:04.796Z,58.07
2018-11-25T18:18:42.248Z,67.90
2018-11-25T18:21:15.094Z,51.30
2018-11-25T18:23:44.522Z,55.10
2018-11-25T18:26:13.534Z,52.33
2018-11-25T18:28:43.789Z,59.20
2018-11-25T18:31:13.239Z,48.17
2018-11-25T18:33:42.097Z,48.45
2018-11-25T18:36:13.109Z,55.37
2018-11-25T18:38:42.053Z,53.73
2018-11-25T18:41:10.881Z,46.30
2018-11-25T18:43:39.610Z,49.63
2018-11-25T18:46:08.391Z,57.30
2018-11-25T18:48:39.821Z,54.27
2018-11-25T18:51:08.702Z,83.80
2018-11-25T18:53:37.541Z,62.60
2018-11-25T18:56:06.255Z,57.60
2018-11-25T18:58:35.149Z,52.50
2018-11-25T19:01:30.409Z,66.63
2018-11-25T19:03:59.196Z,43.78
2018-11-25T19:06:27.900Z,52.55
2018-11-25T19:08:56.618Z,56.93
2018-11-25T19:11:25.385Z,53.50
2018-11-25T19:13:54.372Z,52.67
2018-11-25T19:18:58.162Z,44.37
2018-11-25T19:21:26.850Z,55.40
2018-11-25T19:23:55.640Z,54.50
2018-11-25T19:26:24.465Z,45.73
2018-11-25T19:28:53.237Z,51.13
2018-11-25T19:31:21.972Z,56.73
2018-11-25T19:33:51.220Z,58.50
2018-11-25T19:36:19.934Z,59.73
2018-11-25T19:38:48.692Z,56.50
2018-11-25T19:41:17.360Z,50.53
2018-11-25T19:43:46.159Z,55.40
2018-11-25T19:46:14.908Z,65.95
2018-11-25T19:48:43.980Z,49.37
2018-11-25T19:51:17.548Z,60.80
2018-11-25T19:53:42.624Z,60.85
2018-11-25T19:56:11.408Z,45.43
2018-11-25T19:58:40.127Z,61.57
2018-11-25T20:01:09.620Z,51.28
2018-11-25T20:03:38.346Z,47.98
2018-11-25T20:06:07.138Z,46.23
2018-11-25T20:08:35.970Z,40.40
2018-11-25T20:11:04.825Z,39.37
2018-11-25T20:13:33.697Z,40.97
2018-11-25T20:16:08.785Z,56.30
2018-11-25T20:18:37.782Z,48.77
2018-11-25T20:21:12.123Z,60.85
2018-11-25T20:23:40.897Z,51.57
2018-11-25T20:26:09.656Z,59.63
2018-11-25T20:28:38.361Z,37.83
2018-11-25T20:31:07.080Z,58.87
2018-11-25T20:33:41.308Z,53.70
2018-11-25T20:36:10.009Z,46.10
2018-11-25T20:38:44.085Z,52.00
2018-11-25T20:41:12.765Z,50.80
2018-11-25T20:43:41.465Z,48.48
2018-11-25T20:46:15.568Z,55.37
2018-11-25T20:48:45.480Z,58.23
2018-11-25T20:51:14.311Z,50.83
2018-11-25T20:53:48.661Z,36.07
2018-11-25T20:56:17.398Z,47.17
2018-11-25T20:58:46.239Z,50.30
2018-11-25T21:01:15.428Z,46.53
2018-11-25T21:03:44.222Z,52.00
2018-11-25T21:06:13.101Z,48.83
2018-11-25T21:08:48.638Z,51.73
2018-11-25T21:11:17.455Z,53.20
2018-11-25T21:13:46.368Z,58.68
2018-11-25T21:16:15.124Z,64.80
2018-11-25T21:18:44.352Z,50.90
2018-11-25T21:21:13.087Z,56.50
2018-11-25T21:23:41.820Z,41.67
2018-11-25T21:26:10.809Z,47.07
2018-11-25T21:28:39.579Z,44.70
2018-11-25T21:31:08.521Z,42.73
2018-11-25T21:33:37.253Z,46.20
2018-11-25T21:36:06.130Z,36.23
2018-11-25T21:38:34.822Z,41.03
2018-11-25T21:41:03.546Z,52.10
2018-11-25T21:43:32.369Z,48.97
2018-11-25T21:46:01.648Z,46.68
2018-11-25T21:48:30.489Z,43.80
2018-11-25T21:50:59.402Z,40.00
2018-11-25T21:53:28.237Z,49.60
2018-11-25T21:55:56.938Z,55.95
2018-11-25T21:58:28.756Z,46.60
2018-11-25T22:00:54.740Z,35.57
2018-11-25T22:03:23.828Z,53.05
2018-11-25T22:05:52.569Z,44.67
2018-11-25T22:08:21.365Z,41.60
2018-11-25T22:10:50.180Z,46.45
2018-11-25T22:13:18.957Z,53.67
2018-11-25T22:15:47.841Z,42.83
2018-11-25T22:18:16.576Z,58.07
2018-11-25T22:20:46.041Z,55.80
2018-11-25T22:23:14.956Z,47.93
2018-11-25T22:25:44.050Z,56.40
2018-11-25T22:28:12.861Z,52.50
2018-11-25T22:30:41.578Z,51.90
2018-11-25T22:33:10.296Z,48.93
2018-11-25T22:35:39.027Z,52.53
2018-11-25T22:38:07.728Z,44.17
2018-11-25T22:40:36.635Z,60.08
2018-11-25T22:43:05.336Z,60.98
2018-11-25T22:45:34.284Z,52.40
2018-11-25T22:48:03.619Z,53.93
2018-11-25T22:50:32.317Z,52.90
2018-11-25T22:53:02.052Z,60.90
2018-11-25T22:55:30.843Z,63.53
2018-11-25T22:57:59.602Z,52.83
2018-11-25T23:00:31.997Z,57.30
2018-11-25T23:03:00.826Z,77.67
2018-11-25T23:05:41.042Z,67.85
2018-11-25T23:08:09.979Z,74.87
2018-11-25T23:10:38.721Z,51.70
2018-11-25T23:13:07.455Z,68.77
2018-11-25T23:15:36.296Z,58.67
2018-11-25T23:18:05.514Z,69.85
2018-11-25T23:20:34.308Z,57.53
2018-11-25T23:23:04.205Z,59.60
2018-11-25T23:25:32.985Z,49.10
2018-11-25T23:28:03.169Z,64.50
2018-11-25T23:30:32.038Z,66.28
2018-11-25T23:33:00.972Z,62.78
2018-11-25T23:35:30.965Z,72.33
2018-11-25T23:37:59.786Z,62.98
2018-11-25T23:40:29.309Z,65.20
2018-11-25T23:42:58.024Z,59.40
2018-11-25T23:45:26.766Z,68.50
2018-11-25T23:47:55.598Z,74.13
2018-11-25T23:50:24.308Z,60.60
2018-11-25T23:52:53.335Z,84.83
2018-11-25T23:55:22.068Z,79.30
2018-11-25T23:57:51.024Z,60.12
